首页
METAR-TAF:

METAR-TAF

机场 :

Manistee County-Blacker Airport

Manistee, 密歇根州, 美国

纬度: 44-16N, 经度: 086-15W, 海拔: 189米

当前天气观测

该预报发布于4分钟前的20:56 UTC
风速11节,风向西北
温度 19°C
湿度 68%
气压 1014 hPa
能見度: 16.1公里
天空无云

METAR: KMBL 232056Z AUTO 31011KT 10SM CLR 19/13 A2993 RMK AO2 SLP135 6//// T01940133 51004 PNO $

时间: 17:00 (21:00 UTC)

预报

该预报发布于1小时和14分钟前的19:46 UTC
预报有效从23日的 20点(UTC)到 24日的 18点(UTC)
风速11节,风向西转西北
能見度: 10公里
散云层高于1500英尺
阴天层高于6000英尺
从 23日的 2200点(UTC)
风速7节,风向西
能見度: 10公里
散云层高于10000英尺
从 24日的 0000点(UTC)
风速节,风向
能見度: 10公里
少量云层高于15000英尺
从 24日的 1600点(UTC)
风速6节,风向西转西南
能見度: 10公里
少量云层高于25000英尺

TAF: KMBL 231946Z 2320/2418 29011KT P6SM SCT015 OVC060 FM232200 28007KT P6SM SCT100 FM240000 00000KT P6SM FEW150 FM241600 24006KT P6SM FEW250

超过4000个机场的气象观测和天气预报(METAR&TAF报告)。

可查询的气象台以黄色和红色小点在地图上表示。

将鼠标移到小点上方,可查看气象台名称。

然后点击查看天气观测和预报。

如需切换地图:点击带黑十字的绿色按钮放大地图;点击带横线的绿色按钮缩小地图;或者点击绿色箭头查看邻近地区的地图。


METAR-TAF: